To NAV CANADA Home Page Login to a new session Search on AWWS site Feedback and Comments Disclaimer Vers la page française équivalente Tips FAQ What's new on the site To the Forecasts and Observations / NOTAM section To "File a Flight Plan" website Publications and other links Update of the User's profile FIC Telephone Numbers My Weather Data Folder Route Weather Data Regional Weather Data Local Weather Data To the Forecasts and Observations / NOTAM section
Request Generated 05/26/2015 at 01:13:58 UTC . Weather information available at that time is displayed.

METAR/TAF

QUAQTAQ/QC    

CYHA - METAR not available

*** REMARK        : Forecast period has ended; this was the last TAF issued
*** REMARQUE : La période de prévision est échue; ceci était le dernier TAF qui a été émis
TAF CYHA 251338Z 2514/2521 30015KT 6SM -SN OVC020 TEMPO 2514/2516
P6SM NSW BKN025
FM251600 32015KT P6SM SCT030 TEMPO 2516/2521 BKN020
BECMG 2519/2521 36010KT
RMK NXT FCST WILL BE ISSUED AT 261345Z=
Your time UTC time
Weather data provided by Environment Canada and NAV CANADA